createdAt,value
2019-01-02T00:01:54.271Z,90.79
2019-01-02T00:04:23.522Z,89.98
2019-01-02T00:06:52.330Z,89.46
2019-01-02T00:09:21.223Z,88.91
2019-01-02T00:11:50.485Z,88.40
2019-01-02T00:14:19.313Z,87.69
2019-01-02T00:16:48.382Z,86.37
2019-01-02T00:19:17.826Z,84.79
2019-01-02T00:21:47.753Z,83.44
2019-01-02T00:24:16.564Z,84.08
2019-01-02T00:26:45.431Z,83.07
2019-01-02T00:29:14.318Z,84.10
2019-01-02T00:31:43.109Z,84.99
2019-01-02T00:34:11.925Z,84.97
2019-01-02T00:36:40.731Z,84.90
2019-01-02T00:39:09.854Z,85.59
2019-01-02T00:41:38.838Z,85.41
2019-01-02T00:44:08.089Z,85.63
2019-01-02T00:46:36.985Z,86.31
2019-01-02T00:49:06.134Z,86.86
2019-01-02T00:51:35.016Z,85.52
2019-01-02T00:54:04.434Z,84.35
2019-01-02T00:56:33.493Z,82.89
2019-01-02T00:59:02.737Z,82.35
2019-01-02T01:01:31.631Z,80.74
2019-01-02T01:04:00.778Z,81.75
2019-01-02T01:06:30.113Z,81.18
2019-01-02T01:08:59.251Z,81.59
2019-01-02T01:11:28.221Z,80.92
2019-01-02T01:13:57.365Z,81.09
2019-01-02T01:16:26.184Z,82.37
2019-01-02T01:18:55.305Z,82.73
2019-01-02T01:21:24.194Z,84.37
2019-01-02T01:23:53.375Z,85.16
2019-01-02T01:26:22.430Z,86.40
2019-01-02T01:28:51.178Z,88.21
2019-01-02T01:31:20.152Z,88.82
2019-01-02T01:33:48.939Z,88.44
2019-01-02T01:36:18.142Z,89.06
2019-01-02T01:38:47.028Z,90.62
2019-01-02T01:41:15.840Z,91.79
2019-01-02T01:43:44.918Z,92.34
2019-01-02T01:46:13.777Z,91.01
2019-01-02T01:48:43.017Z,89.60
2019-01-02T01:51:12.088Z,90.52
2019-01-02T01:53:41.011Z,90.26
2019-01-02T01:56:10.009Z,91.48
2019-01-02T01:58:38.828Z,91.30
2019-01-02T02:01:07.714Z,91.39
2019-01-02T02:03:36.626Z,90.48
2019-01-02T02:06:05.573Z,89.41
2019-01-02T02:08:34.720Z,88.56
2019-01-02T02:11:03.710Z,87.21
2019-01-02T02:13:32.527Z,86.57
2019-01-02T02:16:01.807Z,84.79
2019-01-02T02:18:30.667Z,84.48
2019-01-02T02:20:59.943Z,85.08
2019-01-02T02:23:28.926Z,85.25
2019-01-02T02:25:57.808Z,84.12
2019-01-02T02:28:26.783Z,81.86
2019-01-02T02:30:55.590Z,80.16
2019-01-02T02:33:24.777Z,80.64
2019-01-02T02:35:53.927Z,80.71
2019-01-02T02:38:23.170Z,79.49
2019-01-02T02:40:52.496Z,77.20
2019-01-02T02:43:21.321Z,76.30
2019-01-02T02:45:50.258Z,75.60
2019-01-02T02:48:19.535Z,75.43
2019-01-02T02:50:48.783Z,73.09
2019-01-02T02:53:17.864Z,73.78
2019-01-02T02:55:47.653Z,72.90
2019-01-02T02:58:16.832Z,73.10
2019-01-02T03:00:45.973Z,73.78
2019-01-02T03:03:15.176Z,72.92
2019-01-02T03:05:44.057Z,75.09
2019-01-02T03:08:12.857Z,74.29
2019-01-02T03:10:42.196Z,75.16
2019-01-02T03:13:11.392Z,74.56
2019-01-02T03:15:40.650Z,75.66
2019-01-02T03:18:09.722Z,75.71
2019-01-02T03:20:38.697Z,75.43
2019-01-02T03:23:07.519Z,75.39
2019-01-02T03:25:36.809Z,75.18
2019-01-02T03:28:06.000Z,75.90
2019-01-02T03:30:35.093Z,75.42
2019-01-02T03:33:04.540Z,75.15
2019-01-02T03:35:33.428Z,76.53
2019-01-02T03:38:02.234Z,77.30
2019-01-02T03:40:31.183Z,76.61
2019-01-02T03:42:59.993Z,77.12
2019-01-02T03:45:29.154Z,77.17
2019-01-02T03:47:58.045Z,78.26
2019-01-02T03:50:27.002Z,77.13
2019-01-02T03:52:56.147Z,76.82
2019-01-02T03:55:25.282Z,76.06
2019-01-02T03:57:54.161Z,75.62
2019-01-02T04:00:23.100Z,75.81
2019-01-02T04:02:51.902Z,76.30
2019-01-02T04:05:23.193Z,78.13
2019-01-02T04:07:56.347Z,77.94
2019-01-02T04:10:25.848Z,77.98
2019-01-02T04:12:54.725Z,76.86
2019-01-02T04:15:23.670Z,77.29
2019-01-02T04:17:52.562Z,76.97
2019-01-02T04:20:21.374Z,76.44
2019-01-02T04:22:50.172Z,76.95
2019-01-02T04:25:19.058Z,76.25
2019-01-02T04:27:48.169Z,76.88
2019-01-02T04:30:17.126Z,76.90
2019-01-02T04:32:46.085Z,76.38
2019-01-02T04:35:14.983Z,77.93
2019-01-02T04:37:43.898Z,77.06
2019-01-02T04:40:13.616Z,77.67
2019-01-02T04:42:42.625Z,76.81
2019-01-02T04:45:11.773Z,76.92
2019-01-02T04:47:40.924Z,77.74
2019-01-02T04:50:11.955Z,78.26
2019-01-02T04:52:40.758Z,77.83
2019-01-02T04:55:09.713Z,78.94
2019-01-02T04:57:38.688Z,79.37
2019-01-02T05:00:13.620Z,78.99
2019-01-02T05:02:42.422Z,79.71
2019-01-02T05:05:11.379Z,79.81
2019-01-02T05:07:40.181Z,79.27
2019-01-02T05:10:10.572Z,80.55
2019-01-02T05:12:39.515Z,80.60
2019-01-02T05:15:09.399Z,82.10
2019-01-02T05:17:38.405Z,80.12
2019-01-02T05:20:09.463Z,80.49
2019-01-02T05:22:38.446Z,80.45
2019-01-02T05:25:08.174Z,80.02
2019-01-02T05:27:37.234Z,80.85
2019-01-02T05:30:11.721Z,80.77
2019-01-02T05:32:40.548Z,80.22
2019-01-02T05:35:09.642Z,79.75
2019-01-02T05:37:38.556Z,79.55
2019-01-02T05:40:10.289Z,79.83
2019-01-02T05:42:39.163Z,78.65
2019-01-02T05:45:08.202Z,78.85
2019-01-02T05:47:37.054Z,79.32
2019-01-02T05:50:05.986Z,78.74
2019-01-02T05:52:34.784Z,79.70
2019-01-02T05:55:03.859Z,78.57
2019-01-02T05:57:32.676Z,78.54
2019-01-02T06:00:01.486Z,78.59
2019-01-02T06:02:30.499Z,78.43
2019-01-02T06:04:59.985Z,78.60
2019-01-02T06:07:28.763Z,77.73
2019-01-02T06:09:57.564Z,77.07
2019-01-02T06:12:26.459Z,77.29
2019-01-02T06:14:55.266Z,77.08
2019-01-02T06:17:24.136Z,76.74
2019-01-02T06:19:53.096Z,76.33
2019-01-02T06:22:22.060Z,77.14
2019-01-02T06:24:51.152Z,75.95
2019-01-02T06:27:20.032Z,76.06
2019-01-02T06:29:49.039Z,76.04
2019-01-02T06:32:17.929Z,76.03
2019-01-02T06:34:46.821Z,76.17
2019-01-02T06:37:15.620Z,76.63
2019-01-02T06:39:44.413Z,76.44
2019-01-02T06:42:13.364Z,76.01
2019-01-02T06:44:42.270Z,75.93
2019-01-02T06:47:11.144Z,76.10
2019-01-02T06:49:40.036Z,76.17
2019-01-02T06:52:09.020Z,75.52
2019-01-02T06:54:37.867Z,75.54
2019-01-02T06:57:06.689Z,76.50
2019-01-02T06:59:35.598Z,75.43
2019-01-02T07:02:04.390Z,75.78
2019-01-02T07:04:33.202Z,75.99
2019-01-02T07:07:02.658Z,75.30
2019-01-02T07:09:31.449Z,75.89
2019-01-02T07:12:00.400Z,75.34
2019-01-02T07:14:29.210Z,75.95
2019-01-02T07:16:58.160Z,75.48
2019-01-02T07:19:27.039Z,75.31
2019-01-02T07:21:55.979Z,75.96
2019-01-02T07:24:25.267Z,75.19
2019-01-02T07:26:54.082Z,76.29
2019-01-02T07:29:22.912Z,76.05
2019-01-02T07:31:51.735Z,75.77
2019-01-02T07:34:38.051Z,75.54
2019-01-02T07:37:50.123Z,76.64
2019-01-02T07:41:06.117Z,76.89
2019-01-02T07:44:25.175Z,75.69
2019-01-02T07:47:40.173Z,75.78
2019-01-02T07:50:46.959Z,75.45
2019-01-02T07:53:55.232Z,76.15
2019-01-02T07:56:51.155Z,75.02
2019-01-02T08:00:06.843Z,74.43
2019-01-02T08:02:58.335Z,74.21
2019-01-02T08:05:56.342Z,74.98
2019-01-02T08:08:45.864Z,74.90
2019-01-02T08:11:57.681Z,75.24
2019-01-02T08:15:08.823Z,75.37
2019-01-02T08:18:07.816Z,75.72
2019-01-02T08:21:14.059Z,75.18
2019-01-02T08:24:21.584Z,76.09
2019-01-02T08:27:13.823Z,75.41
2019-01-02T08:30:17.353Z,75.13
2019-01-02T08:33:10.138Z,75.56
2019-01-02T08:36:38.235Z,75.55
2019-01-02T08:39:43.048Z,76.29
2019-01-02T08:43:01.297Z,76.50
2019-01-02T08:46:17.384Z,76.05
2019-01-02T08:49:46.579Z,75.19
2019-01-02T08:52:34.070Z,74.54
2019-01-02T08:55:41.272Z,76.03
2019-01-02T08:58:42.593Z,74.94
2019-01-02T09:01:42.464Z,76.39
2019-01-02T09:04:26.040Z,75.76
2019-01-02T09:07:30.781Z,75.01
2019-01-02T09:10:40.122Z,75.05
2019-01-02T09:13:40.875Z,75.11
2019-01-02T09:16:53.832Z,75.13
2019-01-02T09:20:13.187Z,75.39
2019-01-02T09:22:51.604Z,76.15
2019-01-02T09:26:12.043Z,75.50
2019-01-02T09:29:24.989Z,75.48
2019-01-02T09:32:22.554Z,76.46
2019-01-02T09:35:28.517Z,76.22
2019-01-02T09:38:57.152Z,76.51
2019-01-02T09:42:04.118Z,76.55
2019-01-02T09:44:59.764Z,77.26
2019-01-02T09:48:12.556Z,77.54
2019-01-02T09:51:28.730Z,78.04
2019-01-02T09:54:34.791Z,77.83
2019-01-02T09:57:34.839Z,78.80
2019-01-02T10:00:43.623Z,78.80
2019-01-02T10:03:48.558Z,78.37
2019-01-02T10:06:40.450Z,78.06
2019-01-02T10:09:25.330Z,78.45
2019-01-02T10:12:04.174Z,77.84
2019-01-02T10:15:13.502Z,77.92
2019-01-02T10:18:11.897Z,77.99
2019-01-02T10:21:24.281Z,79.10
2019-01-02T10:24:28.783Z,78.04
2019-01-02T10:27:27.202Z,77.80
2019-01-02T10:30:46.171Z,76.92
2019-01-02T10:33:52.478Z,78.17
2019-01-02T10:36:57.503Z,78.04
2019-01-02T10:40:05.746Z,77.71
2019-01-02T10:43:18.606Z,79.28
2019-01-02T10:46:05.877Z,78.95
2019-01-02T10:49:30.710Z,79.50
2019-01-02T10:52:46.826Z,78.48
2019-01-02T10:55:33.961Z,78.61
2019-01-02T10:59:02.458Z,79.91
2019-01-02T11:02:10.808Z,78.46
2019-01-02T11:05:21.405Z,78.81
2019-01-02T11:08:23.262Z,79.17
2019-01-02T11:11:05.687Z,80.84
2019-01-02T11:13:50.750Z,81.83
2019-01-02T11:17:18.986Z,80.60
2019-01-02T11:20:50.588Z,81.30
2019-01-02T11:23:54.828Z,80.44
2019-01-02T11:26:48.605Z,80.51
2019-01-02T11:30:09.720Z,81.33
2019-01-02T11:33:12.721Z,81.67
2019-01-02T11:36:05.769Z,80.45
2019-01-02T11:39:29.746Z,79.89
2019-01-02T11:42:12.598Z,80.21
2019-01-02T11:45:15.028Z,79.68
2019-01-02T11:47:43.895Z,79.50
2019-01-02T11:50:14.551Z,79.46
2019-01-02T11:52:43.429Z,78.57
2019-01-02T11:55:12.975Z,77.45
2019-01-02T11:57:41.856Z,76.51
2019-01-02T12:00:16.022Z,76.66
2019-01-02T12:02:44.846Z,76.72
2019-01-02T12:05:13.812Z,76.82
2019-01-02T12:07:43.421Z,75.50
2019-01-02T12:10:13.861Z,74.63
2019-01-02T12:12:43.515Z,74.12
2019-01-02T12:15:12.577Z,74.76
2019-01-02T12:17:41.387Z,72.07
2019-01-02T12:20:11.400Z,71.67
2019-01-02T12:22:40.268Z,72.73
2019-01-02T12:25:09.203Z,73.49
2019-01-02T12:27:38.187Z,71.97
2019-01-02T12:30:10.779Z,71.72
2019-01-02T12:32:39.722Z,71.46
2019-01-02T12:35:08.678Z,72.84
2019-01-02T12:37:37.572Z,76.51
2019-01-02T12:40:07.925Z,79.74
2019-01-02T12:42:36.731Z,80.30
2019-01-02T12:45:06.257Z,80.75
2019-01-02T12:47:38.106Z,81.60
2019-01-02T12:50:09.160Z,79.25
2019-01-02T12:52:38.419Z,78.61
2019-01-02T12:55:07.526Z,77.20
2019-01-02T12:57:36.518Z,77.92
2019-01-02T13:00:09.289Z,77.92
2019-01-02T13:03:06.824Z,76.69
2019-01-02T13:06:15.503Z,76.03
2019-01-02T13:09:15.538Z,77.88
2019-01-02T13:12:22.321Z,76.75
2019-01-02T13:15:19.634Z,77.40
2019-01-02T13:18:29.410Z,78.63
2019-01-02T13:21:19.497Z,78.06
2019-01-02T13:24:26.078Z,77.87
2019-01-02T13:27:14.449Z,77.70
2019-01-02T13:30:30.537Z,78.04
2019-01-02T13:33:40.710Z,78.41
2019-01-02T13:36:38.995Z,76.76
2019-01-02T13:39:20.185Z,76.87
2019-01-02T13:41:55.530Z,77.62
2019-01-02T13:45:17.577Z,76.46
2019-01-02T13:48:20.945Z,75.14
2019-01-02T13:51:23.123Z,73.96
2019-01-02T13:53:52.068Z,73.06
2019-01-02T13:56:23.148Z,74.81
2019-01-02T13:58:52.001Z,72.84
2019-01-02T14:01:20.825Z,74.48
2019-01-02T14:03:56.051Z,73.69
2019-01-02T14:06:24.928Z,73.63
2019-01-02T14:08:53.885Z,74.46
2019-01-02T14:11:22.837Z,73.94
2019-01-02T14:13:51.739Z,74.14
2019-01-02T14:16:20.611Z,72.31
2019-01-02T14:18:49.415Z,72.03
2019-01-02T14:21:18.321Z,71.00
2019-01-02T14:23:47.505Z,69.47
2019-01-02T14:26:16.292Z,70.05
2019-01-02T14:28:45.186Z,69.10
2019-01-02T14:31:14.076Z,68.81
2019-01-02T14:33:42.895Z,69.12
2019-01-02T14:36:11.699Z,67.03
2019-01-02T14:38:40.505Z,67.59
2019-01-02T14:41:09.319Z,66.13
2019-01-02T14:43:38.136Z,67.93
2019-01-02T14:46:07.445Z,67.29
2019-01-02T14:48:36.604Z,68.06
2019-01-02T14:51:05.451Z,68.75
2019-01-02T14:53:35.536Z,68.34
2019-01-02T14:56:04.410Z,67.28
2019-01-02T14:58:33.324Z,66.88
2019-01-02T15:01:02.187Z,68.38
2019-01-02T15:03:31.262Z,68.52
2019-01-02T15:06:00.056Z,69.85
2019-01-02T15:08:28.964Z,70.99
2019-01-02T15:10:57.775Z,72.16
2019-01-02T15:13:26.571Z,72.49
2019-01-02T15:15:55.362Z,72.84
2019-01-02T15:18:24.382Z,72.51
2019-01-02T15:20:53.272Z,72.62
2019-01-02T15:23:22.092Z,72.50
2019-01-02T15:25:50.879Z,72.31
2019-01-02T15:28:19.687Z,73.33
2019-01-02T15:30:49.655Z,74.50
2019-01-02T15:33:18.473Z,74.96
2019-01-02T15:35:48.979Z,74.58
2019-01-02T15:38:17.977Z,74.75
2019-01-02T15:40:46.872Z,74.23
2019-01-02T15:43:15.699Z,73.94
2019-01-02T15:45:44.502Z,74.72
2019-01-02T15:48:13.394Z,74.52
2019-01-02T15:50:42.198Z,75.77
2019-01-02T15:53:10.983Z,77.69
2019-01-02T15:55:39.910Z,78.62
2019-01-02T15:58:08.717Z,78.90
2019-01-02T16:00:37.591Z,78.39
2019-01-02T16:03:06.459Z,79.05
2019-01-02T16:05:35.266Z,79.80
2019-01-02T16:08:04.138Z,79.72
2019-01-02T16:10:32.945Z,79.68
2019-01-02T16:13:01.757Z,78.83
2019-01-02T16:15:30.777Z,78.84
2019-01-02T16:17:59.575Z,77.71
2019-01-02T16:20:28.559Z,77.71
2019-01-02T16:22:57.437Z,76.93
2019-01-02T16:25:26.321Z,76.81
2019-01-02T16:27:55.196Z,77.27
2019-01-02T16:30:24.258Z,76.40
2019-01-02T16:32:53.118Z,76.31
2019-01-02T16:35:22.067Z,75.94
2019-01-02T16:37:51.857Z,75.59
2019-01-02T16:40:20.744Z,75.49
2019-01-02T16:42:49.595Z,75.35
2019-01-02T16:45:18.498Z,74.89
2019-01-02T16:47:47.368Z,74.53
2019-01-02T16:50:16.341Z,75.53
2019-01-02T16:52:45.139Z,75.72
2019-01-02T16:55:14.039Z,76.24
2019-01-02T16:57:42.935Z,75.79
2019-01-02T17:00:14.120Z,75.01
2019-01-02T17:02:43.114Z,76.87
2019-01-02T17:05:12.105Z,76.49
2019-01-02T17:07:40.994Z,76.75
2019-01-02T17:10:11.405Z,76.48
2019-01-02T17:12:40.466Z,77.19
2019-01-02T17:15:09.437Z,77.03
2019-01-02T17:17:38.315Z,77.70
2019-01-02T17:20:08.349Z,77.74
2019-01-02T17:22:37.260Z,78.07
2019-01-02T17:25:06.963Z,77.78
2019-01-02T17:27:35.823Z,78.26
2019-01-02T17:30:05.503Z,78.55
2019-01-02T17:32:34.327Z,78.58
2019-01-02T17:35:03.416Z,79.07
2019-01-02T17:37:32.281Z,79.16
2019-01-02T17:40:01.086Z,79.85
2019-01-02T17:42:29.978Z,79.98
2019-01-02T17:44:58.931Z,80.17
2019-01-02T17:47:27.710Z,80.53
2019-01-02T17:49:56.590Z,80.17
2019-01-02T17:52:25.382Z,80.39
2019-01-02T17:54:54.757Z,80.54
2019-01-02T17:57:23.637Z,80.75
2019-01-02T17:59:52.439Z,81.21
2019-01-02T18:02:21.323Z,81.61
2019-01-02T18:04:50.120Z,82.28
2019-01-02T18:07:18.996Z,82.51
2019-01-02T18:09:47.803Z,82.84
2019-01-02T18:12:16.676Z,82.80
2019-01-02T18:14:45.584Z,82.94
2019-01-02T18:17:14.454Z,83.08
2019-01-02T18:19:43.378Z,82.98
2019-01-02T18:22:12.199Z,82.99
2019-01-02T18:24:41.066Z,83.13
2019-01-02T18:27:09.855Z,83.57
2019-01-02T18:29:38.733Z,83.80
2019-01-02T18:32:07.702Z,83.79
2019-01-02T18:34:36.589Z,84.33
2019-01-02T18:37:05.547Z,84.06
2019-01-02T18:39:34.336Z,83.73
2019-01-02T18:42:03.232Z,83.39
2019-01-02T18:44:32.045Z,83.08
2019-01-02T18:47:00.942Z,83.23
2019-01-02T18:49:29.741Z,82.91
2019-01-02T18:51:58.651Z,82.91
2019-01-02T18:54:27.523Z,82.92
2019-01-02T18:56:57.154Z,82.40
2019-01-02T18:59:25.951Z,82.41
2019-01-02T19:01:54.790Z,82.07
2019-01-02T19:04:23.585Z,83.12
2019-01-02T19:06:52.525Z,83.44
2019-01-02T19:09:21.484Z,83.70
2019-01-02T19:11:50.382Z,84.02
2019-01-02T19:14:19.182Z,84.29
2019-01-02T19:16:48.065Z,84.60
2019-01-02T19:19:16.952Z,84.36
2019-01-02T19:21:45.840Z,84.95
2019-01-02T19:24:14.644Z,85.41
2019-01-02T19:26:43.532Z,84.93
2019-01-02T19:29:12.424Z,85.04
2019-01-02T19:31:41.338Z,84.73
2019-01-02T19:34:10.119Z,84.85
2019-01-02T19:36:39.088Z,85.40
2019-01-02T19:39:08.397Z,85.28
2019-01-02T19:41:37.352Z,85.51
2019-01-02T19:44:06.175Z,85.73
2019-01-02T19:46:35.049Z,85.90
2019-01-02T19:49:03.855Z,86.07
2019-01-02T19:51:32.659Z,86.23
2019-01-02T19:54:01.481Z,86.16
2019-01-02T19:56:30.383Z,85.50
2019-01-02T19:59:00.474Z,84.77
2019-01-02T20:01:29.520Z,84.43
2019-01-02T20:03:58.411Z,84.43
2019-01-02T20:06:27.230Z,83.06
2019-01-02T20:08:56.108Z,83.71
2019-01-02T20:11:24.994Z,84.50
2019-01-02T20:13:53.858Z,83.85
2019-01-02T20:16:22.827Z,83.94
2019-01-02T20:18:51.666Z,84.06
2019-01-02T20:21:20.550Z,84.54
2019-01-02T20:23:49.357Z,84.51
2019-01-02T20:26:18.163Z,84.68
2019-01-02T20:28:46.975Z,84.96
2019-01-02T20:31:15.787Z,85.24
2019-01-02T20:33:44.676Z,86.04
2019-01-02T20:36:13.464Z,86.13
2019-01-02T20:38:42.268Z,86.81
2019-01-02T20:41:11.063Z,86.77
2019-01-02T20:43:40.073Z,87.12
2019-01-02T20:46:08.998Z,86.78
2019-01-02T20:48:37.820Z,86.21
2019-01-02T20:51:06.710Z,86.23
2019-01-02T20:53:35.523Z,86.57
2019-01-02T20:56:04.418Z,85.73
2019-01-02T20:58:33.230Z,85.73
2019-01-02T21:01:02.124Z,86.30
2019-01-02T21:03:31.911Z,86.30
2019-01-02T21:06:00.715Z,86.27
2019-01-02T21:08:29.601Z,86.15
2019-01-02T21:10:58.392Z,85.69
2019-01-02T21:13:27.194Z,84.59
2019-01-02T21:15:56.282Z,83.93
2019-01-02T21:18:25.106Z,83.60
2019-01-02T21:20:54.264Z,84.16
2019-01-02T21:23:23.141Z,85.06
2019-01-02T21:25:52.050Z,84.13
2019-01-02T21:28:20.940Z,83.59
2019-01-02T21:30:49.741Z,83.68
2019-01-02T21:33:18.629Z,83.75
2019-01-02T21:35:47.540Z,83.42
2019-01-02T21:38:16.343Z,83.91
2019-01-02T21:40:45.230Z,84.19
2019-01-02T21:43:14.100Z,84.19
2019-01-02T21:45:42.916Z,84.34
2019-01-02T21:48:11.805Z,84.22
2019-01-02T21:50:40.685Z,84.84
2019-01-02T21:53:09.772Z,84.92
2019-01-02T21:55:38.832Z,85.26
2019-01-02T21:58:07.649Z,85.65
2019-01-02T22:02:40.414Z,86.38
2019-01-02T22:05:08.725Z,86.81
2019-01-02T22:07:37.696Z,87.04
2019-01-02T22:10:07.014Z,87.05
2019-01-02T22:12:35.833Z,87.33
2019-01-02T22:15:05.318Z,87.49
2019-01-02T22:17:35.113Z,87.68
2019-01-02T22:20:04.314Z,87.92
2019-01-02T22:22:33.214Z,87.63
2019-01-02T22:25:02.101Z,88.16
2019-01-02T22:27:30.985Z,88.35
2019-01-02T22:29:59.797Z,89.15
2019-01-02T22:32:28.671Z,88.64
2019-01-02T22:34:57.617Z,89.46
2019-01-02T22:37:26.477Z,89.43
2019-01-02T22:39:55.300Z,89.83
2019-01-02T22:42:24.174Z,89.17
2019-01-02T22:44:53.017Z,88.87
2019-01-02T22:47:21.869Z,89.24
2019-01-02T22:49:50.685Z,88.16
2019-01-02T22:52:19.560Z,88.36
2019-01-02T22:54:48.439Z,88.19
2019-01-02T22:57:17.226Z,88.06
2019-01-02T22:59:46.147Z,88.05
2019-01-02T23:02:24.179Z,88.45
2019-01-02T23:05:12.349Z,89.07
2019-01-02T23:08:03.250Z,89.68
2019-01-02T23:10:50.284Z,90.61
2019-01-02T23:13:47.969Z,91.59
2019-01-02T23:16:36.832Z,91.84
2019-01-02T23:19:23.727Z,92.41
2019-01-02T23:22:23.762Z,92.98
2019-01-02T23:25:14.025Z,93.67
2019-01-02T23:28:05.150Z,93.92
2019-01-02T23:31:01.893Z,94.13
2019-01-02T23:33:47.886Z,94.83
2019-01-02T23:36:38.736Z,94.67
2019-01-02T23:39:27.386Z,94.61
2019-01-02T23:42:19.629Z,94.52
2019-01-02T23:45:05.719Z,94.37
2019-01-02T23:47:47.968Z,94.36
2019-01-02T23:50:54.167Z,94.27
2019-01-02T23:53:44.232Z,94.88
2019-01-02T23:56:31.028Z,94.69
2019-01-02T23:59:13.173Z,94.42
